»·PEaware :: AAL1810 KPHX-KSAN

AAL1810 :: KPHX-KSAN

FLIGHT INFORMATION

Flight Status: Arrived
Operator:
American Airlines
More flights by this operator :: More flights under this callsign
Pilot: Kevin M. (7)
Aircraft: BOEING 737-800
(B738)
More flights by this aircraft type
Origin: KPHX Phoenix Sky Harbor Intl
United States
Destination: KSAN San Diego Intl-Lindbergh
United States
More flights between these airports :: More routes between these airports
Route: +FYRBD1 MOHAK J2 HOGGZ LUCKI1
File this flight plan on PilotEdge
Remarks:
Altitude:
(Current/Filed)
28,000ft
Speed:
(Current/Filed)
468kts
Departed: 01-Aug-20 11:13 AM
Arrived: 01-Aug-20 12:00 PM
Distance/Time
Traveled:
264nm/0:46
Distance/Time
To Go:
Arrived

Flight Plot

Page will automatically refresh every two minutes.


Map Options




Map Legend


Flown Route
Filed Route
Departure Airport
Arrival Airport
Navaid (VOR, NDB)
Fix

Horizontal Profiles

Position Reports

Time Latitude Longitude Heading Altitude Ground
Speed
01-Aug-20 10:54 33.437855 -111.999827 90 1136ft 0kts
01-Aug-20 10:55 33.437855 -111.999827 90 1136ft 0kts
01-Aug-20 10:56 33.437855 -111.999827 90 1136ft 0kts
01-Aug-20 10:57 33.437855 -111.999827 90 1136ft 0kts
01-Aug-20 10:58 33.437855 -111.999827 90 1136ft 0kts
01-Aug-20 10:59 33.437855 -111.999827 90 1136ft 0kts
01-Aug-20 11:00 33.437855 -111.999827 90 1136ft 0kts
01-Aug-20 11:01 33.437855 -111.999827 90 1136ft 0kts
01-Aug-20 11:02 33.437855 -111.999827 90 1136ft 0kts
01-Aug-20 11:03 33.437781 -112.000312 13 1136ft 1kts
01-Aug-20 11:04 33.437678 -112.000313 358 1135ft 0kts
01-Aug-20 11:05 33.437678 -112.000313 358 1135ft 0kts
01-Aug-20 11:06 33.438401 -112.000311 1 1136ft 0kts
01-Aug-20 11:07 33.438488 -112.000308 1 1136ft 5kts
01-Aug-20 11:08 33.437652 -112.003812 179 1132ft 18kts
01-Aug-20 11:09 33.432887 -112.005189 269 1132ft 17kts
01-Aug-20 11:10 33.432891 -112.014801 270 1127ft 33kts
01-Aug-20 11:11 33.432888 -112.025898 268 1120ft 27kts
01-Aug-20 11:12 33.431062 -112.022254 90 1121ft 81kts
01-Aug-20 11:13 33.432216 -111.969874 85 2681ft 186kts
01-Aug-20 11:14 33.433292 -111.896978 92 4500ft 249kts
01-Aug-20 11:15 33.387002 -111.845763 191 7771ft 260kts
01-Aug-20 11:16 33.352925 -111.910451 278 10783ft 263kts
01-Aug-20 11:17 33.353791 -112.005286 258 12616ft 326kts
01-Aug-20 11:18 33.306175 -112.109352 235 13985ft 388kts
01-Aug-20 11:19 33.239145 -112.218213 235 15598ft 420kts
01-Aug-20 11:20 33.168423 -112.332993 235 17422ft 438kts
01-Aug-20 11:21 33.095244 -112.451457 235 19173ft 450kts
01-Aug-20 11:22 33.019989 -112.573192 235 20710ft 464kts
01-Aug-20 11:23 32.961917 -112.709947 255 22152ft 471kts
01-Aug-20 11:24 32.933705 -112.863858 260 23540ft 480kts
01-Aug-20 11:25 32.910495 -113.021977 261 24834ft 488kts
01-Aug-20 11:26 32.888147 -113.182435 261 26143ft 493kts
01-Aug-20 11:27 32.865990 -113.342823 262 27818ft 490kts
01-Aug-20 11:28 32.843924 -113.501710 262 27999ft 486kts
01-Aug-20 11:29 32.821727 -113.660240 261 27986ft 485kts
01-Aug-20 11:30 32.798725 -113.818122 261 27971ft 485kts
01-Aug-20 11:31 32.779500 -113.976505 268 27973ft 484kts
01-Aug-20 11:32 32.778551 -114.135796 273 27972ft 483kts
01-Aug-20 11:33 32.784496 -114.294940 276 27971ft 482kts
01-Aug-20 11:34 32.810405 -114.450828 287 27972ft 480kts
01-Aug-20 11:35 32.848511 -114.602494 289 27964ft 479kts
01-Aug-20 11:36 32.877053 -114.757181 273 27952ft 483kts
01-Aug-20 11:37 32.875186 -114.917107 269 27946ft 483kts
01-Aug-20 11:38 32.871776 -115.076777 269 27941ft 478kts
01-Aug-20 11:39 32.868338 -115.225571 269 27946ft 445kts
01-Aug-20 11:41 32.859820 -115.373100 262 27839ft 443kts
01-Aug-20 11:42 32.840490 -115.513514 260 25955ft 422kts
01-Aug-20 11:43 32.817102 -115.656608 259 24260ft 450kts
01-Aug-20 11:44 32.793909 -115.797699 259 21588ft 422kts
01-Aug-20 11:45 32.779429 -115.931711 265 19012ft 399kts
01-Aug-20 11:46 32.769305 -116.063459 265 16384ft 400kts
01-Aug-20 11:47 32.759679 -116.190175 265 14148ft 369kts
01-Aug-20 11:48 32.750961 -116.303192 265 13196ft 326kts
01-Aug-20 11:49 32.742623 -116.409036 265 11443ft 318kts
01-Aug-20 11:50 32.734638 -116.510314 264 10372ft 292kts
01-Aug-20 11:51 32.725506 -116.603464 264 9208ft 281kts
01-Aug-20 11:52 32.717154 -116.695556 265 7823ft 279kts
01-Aug-20 11:53 32.710093 -116.786605 264 6452ft 275kts
01-Aug-20 11:54 32.690625 -116.873410 249 5088ft 272kts
01-Aug-20 11:55 32.676827 -116.953127 279 4972ft 224kts
01-Aug-20 11:56 32.692783 -117.024183 285 4346ft 233kts
01-Aug-20 11:57 32.710432 -117.093663 284 1703ft 203kts
01-Aug-20 11:58 32.723159 -117.146576 286 873ft 154kts
01-Aug-20 11:59 32.734484 -117.193507 285 24ft 99kts
01-Aug-20 11:59 32.735276 -117.201151 110 20ft 14kts
01-Aug-20 12:00 32.733741 -117.198994 150 20ft 0kts

Navigation Log

Ident Type
Flight plan parsing failed, navigation log unavailable